Weather observations for the past three days for
Lapeer Dupont-lapeer
Imperial (Metric)
Date Time (edt) Wind (mph) Vis. (mi.) Weather Sky Cond. Temperature (ºF) Relative Humidity Wind Chill (°F) Heat Index (°F) Pressure Precipitation (in)
Air Dwpt 6 hour altimeter (in) sea level (mb) 1 hr 3 hr 6 hr
Max. Min.
31 00:15 S 3 10.00 Mostly Cloudy FEW080 BKN110 69.8 66.2 88% 30.03 0.0
30 23:55 S 6 10.00 Mostly Cloudy BKN075 BKN095 69.8 66.2 88% 30.03 0.0
30 23:35 S 7 10.00 Overcast OVC075 71.6 66.2 83% 30.03 0.0
30 23:15 S 7 10.00 Overcast SCT034 OVC075 71.6 66.2 83% 30.03 0.0
30 22:55 S 6 10.00 Overcast OVC036 69.8 66.2 88% 30.02 0.0
30 22:35 S 6 10.00 Partly Cloudy SCT036 69.8 66.2 88% 30.02 0.0
30 22:15 S 7 10.00 Fair CLR 69.8 66.2 88% 30.02 0.0
30 21:55 S 7 10.00 Fair CLR 69.8 66.2 88% 30.02 0.0
30 21:46 S 7 10.00 Fair CLR 69.8 66.2 88% 30.02 0.0
29 14:55 W 13 G 21 10.00 Partly Cloudy SCT060 SCT070 82.4 57.2 42% 82 30.13 0.0
29 14:35 W 12 G 23 10.00 Mostly Cloudy SCT060 BKN070 82.4 57.2 42% 82 30.14 0.0
29 14:15 W 13 G 18 10.00 Mostly Cloudy BKN060 BKN070 82.4 57.2 42% 82 30.15 0.0
29 13:55 W 10 10.00 Mostly Cloudy BKN060 82.4 57.2 82.9 63.7 42% 82 30.15 0.0
29 13:35 SW 13 G 18 10.00 A Few Clouds FEW060 82.4 55.4 40% 82 30.15 0.0
29 13:15 SW 10 10.00 Partly Cloudy SCT060 80.6 55.4 42% 81 30.16 0.0
29 12:55 SW 17 10.00 Mostly Cloudy FEW045 BKN060 80.6 55.4 42% 81 30.16 0.0
29 12:35 SW 8 10.00 A Few Clouds FEW049 FEW060 78.8 55.4 45% 79 30.17 0.0
29 12:15 SW 9 10.00 Mostly Cloudy SCT049 BKN060 BKN070 77 55.4 47% 79 30.17 0.0
29 11:55 S 10 10.00 Overcast BKN049 BKN060 OVC070 77 55.4 47% 79 30.18 0.0
29 11:35 SW 6 10.00 Overcast BKN047 BKN060 OVC070 73.4 55.4 53% 30.19 0.0
29 11:15 SW 7 10.00 Overcast SCT047 OVC060 73.4 53.6 50% 30.19 0.0
29 10:55 SW 7 10.00 Overcast OVC065 73.4 51.8 47% 30.19 0.0
29 10:35 SW 7 10.00 Overcast OVC060 71.6 51.8 50% 30.19 0.0
29 10:15 SW 9 10.00 Mostly Cloudy BKN060 BKN070 71.6 51.8 50% 30.18 0.0
29 09:55 SW 10 10.00 A Few Clouds FEW070 FEW080 73.4 51.8 47% 30.18 0.0
29 09:35 S 8 10.00 Partly Cloudy SCT085 71.6 53.6 53% 30.18 0.0
29 09:15 SW 8 10.00 Partly Cloudy SCT085 69.8 53.6 57% 30.19 0.0
29 08:55 SW 7 10.00 Fair CLR 68 55.4 64% 30.19 0.0
29 08:35 SW 6 10.00 Fair CLR 66.2 53.6 64% 30.19 0.0
29 08:15 SW 7 10.00 Fair CLR 64.4 53.6 68% 30.19 0.0
29 07:55 SW 6 10.00 Fair CLR 64.4 53.6 63.9 58.1 68% 30.18 0.0
29 07:35 SW 5 10.00 Fair CLR 60.8 51.8 72% 30.18 0.0
29 07:15 S 3 10.00 Fair CLR 59 51.8 77% 30.17 0.0
29 06:55 S 3 10.00 Fair CLR 60.8 53.6 77% 30.16 0.0
29 06:35 S 5 10.00 Partly Cloudy SCT055 60.8 53.6 77% 30.16 0.0
29 06:15 S 5 10.00 Mostly Cloudy BKN055 62.6 53.6 73% 30.17 0.0
29 05:55 SW 6 10.00 Overcast OVC055 62.6 55.4 77% 30.18 0.0
29 05:35 SW 6 10.00 Mostly Cloudy BKN055 62.6 57.2 83% 30.17 0.0
29 05:15 SW 6 10.00 Mostly Cloudy BKN055 62.6 59 88% 30.17 0.0
29 04:55 SW 6 10.00 Overcast OVC055 64.4 60.8 88% 30.17 0.0
29 04:35 SW 5 10.00 Mostly Cloudy BKN060 62.6 59 88% 30.17 0.0
29 04:15 S 7 10.00 Partly Cloudy SCT060 62.6 59 88% 30.17 0.0
29 03:55 S 5 10.00 Fair CLR 62.6 59 88% 30.16 0.0
29 03:35 S 6 10.00 Fair CLR 62.6 59 88% 30.16 0.0
29 03:15 S 6 10.00 Fair CLR 62.6 59 88% 30.16 0.0
29 02:55 S 5 10.00 Fair CLR 62.6 59 88% 30.16 0.0
29 02:35 S 5 10.00 Fair CLR 62.6 59 88% 30.16 0.0
29 02:15 S 5 10.00 Fair CLR 60.8 59 94% 30.16 0.0
29 01:55 S 3 10.00 Fair CLR 59 57.2 67.1 55.8 94% 30.17 0.0
29 01:35 S 3 10.00 Partly Cloudy SCT060 55.4 55.4 100% 30.17 0.0
29 01:15 SE 1 10.00 Overcast BKN060 OVC070 57.2 55.4 94% 30.17 0.0
29 00:55 S 1 10.00 Mostly Cloudy BKN060 BKN070 57.2 55.4 94% 30.17 0.0
29 00:35 SE 2 10.00 A Few Clouds FEW060 59 55.4 88% 30.17 0.0
29 00:15 SE 2 10.00 A Few Clouds FEW095 59 55.4 88% 30.16 0.0
28 23:55 SE 3 10.00 Partly Cloudy SCT085 60.8 55.4 83% 30.16 0.0
28 23:35 S 2 10.00 A Few Clouds FEW085 60.8 55.4 83% 30.16 0.0
28 23:15 SE 3 10.00 Fair CLR 60.8 55.4 83% 30.16 0.0
28 22:55 SE 2 10.00 A Few Clouds FEW090 60.8 55.4 83% 30.17 0.0
28 22:35 SE 3 10.00 Partly Cloudy SCT090 62.6 55.4 77% 30.17 0.0
28 22:15 E 2 10.00 Overcast OVC090 62.6 55.4 77% 30.17 0.0
28 21:55 SE 2 10.00 Partly Cloudy SCT090 62.6 55.4 77% 30.16 0.0
28 21:35 E 3 10.00 Fair CLR 64.4 57.2 78% 30.16 0.0
28 21:15 Vrbl 1 10.00 A Few Clouds FEW090 62.6 57.2 83% 30.15 0.0
28 20:55 E 2 10.00 Fair CLR 64.4 57.2 78% 30.14 0.0
28 20:35 SE 3 10.00 Fair CLR 64.4 57.2 78% 30.14 0.0
28 20:15 SE 3 10.00 Fair CLR 64.4 57.2 78% 30.14 0.0
28 19:55 SE 2 10.00 A Few Clouds FEW100 66.2 59 74.7 66.9 78% 30.15 0.0
28 19:35 SE 2 10.00 A Few Clouds FEW095 69.8 57.2 64% 30.15 0.0
28 19:15 SE 3 10.00 Partly Cloudy FEW060 SCT095 73.4 55.4 53% 30.15 0.0
28 18:55 SE 2 10.00 Partly Cloudy SCT060 73.4 55.4 53% 30.15 0.0
28 18:35 Calm 10.00 Mostly Cloudy BKN060 73.4 53.6 50% 30.15 0.0
28 18:15 Vrbl 1 10.00 Overcast OVC060 73.4 51.8 47% 30.15 0.0
28 17:55 E 2 10.00 Overcast OVC060 73.4 53.6 50% 30.16 0.0
28 17:35 Vrbl 2 10.00 Overcast BKN060 OVC075 73.4 53.6 50% 30.16 0.0
28 17:15 Calm 10.00 Overcast OVC060 71.6 51.8 50% 30.16 0.0
28 16:55 N 1 10.00 Overcast OVC060 73.4 51.8 47% 30.16 0.0
28 16:35 Vrbl 1 10.00 Overcast OVC060 71.6 53.6 53% 30.16 0.0
28 16:15 NW 2 10.00 Overcast OVC070 73.4 51.8 47% 30.17 0.0
28 15:55 Vrbl 1 10.00 Overcast BKN070 BKN080 OVC100 73.4 51.8 47% 30.17 0.0
28 15:35 Vrbl 3 10.00 Mostly Cloudy BKN080 BKN100 73.4 53.6 50% 30.17 0.0
28 15:15 Vrbl 3 6.00 Overcast with Haze OVC090 73.4 53.6 50% 30.17 0.0
28 14:55 W 3 10.00 Overcast SCT065 OVC090 73.4 51.8 47% 30.18 0.0
28 14:35 NW 6 10.00 Overcast SCT065 OVC080 71.6 51.8 50% 30.18 0.0
28 14:15 N 6 10.00 Overcast BKN070 OVC090 71.6 53.6 53% 30.19 0.0
28 13:55 Vrbl 5 10.00 Overcast FEW060 BKN080 OVC090 73.4 53.6 74.1 53.2 50% 30.19 0.0
28 13:35 Vrbl 5 10.00 Overcast FEW060 BKN070 OVC090 73.4 53.6 50% 30.19 0.0
28 13:15 Vrbl 3 10.00 Overcast BKN080 OVC090 71.6 53.6 53% 30.19 0.0
28 12:55 N 3 10.00 Overcast OVC080 71.6 53.6 53% 30.19 0.0
28 12:35 Vrbl 3 10.00 Overcast OVC080 71.6 55.4 57% 30.19 0.0
28 12:15 NW 7 10.00 Mostly Cloudy BKN080 71.6 55.4 57% 30.19 0.0
28 11:55 Vrbl 3 10.00 A Few Clouds FEW070 69.8 55.4 60% 30.19 0.0
28 11:35 Vrbl 5 10.00 Partly Cloudy SCT070 69.8 55.4 60% 30.19 0.0
28 11:15 NW 3 10.00 Fair CLR 68 55.4 64% 30.19 0.0
28 10:55 NW 5 10.00 Fair CLR 68 55.4 64% 30.19 0.0
28 10:35 NW 5 10.00 Fair CLR 68 55.4 64% 30.19 0.0
28 10:15 N 5 10.00 Fair CLR 66.2 55.4 68% 30.19 0.0
28 09:55 Calm 10.00 Fair CLR 64.4 57.2 78% 30.18 0.0
28 09:35 Vrbl 3 10.00 Fair CLR 62.6 59 88% 30.19 0.0
28 09:15 N 2 10.00 Fair CLR 62.6 59 88% 30.19 0.0
28 08:55 N 1 10.00 Fair CLR 59 57.2 94% 30.18 0.0
28 08:35 NE 2 4.00 Fog/Mist CLR 57.2 55.4 94% 30.17 0.0
28 08:15 N 2 4.00 Fog/Mist CLR 55.4 55.4 100% 30.18 0.0
28 07:55 Calm 1.75 Fog/Mist CLR 53.6 51.8 59.2 51.3 94% 30.17 0.0
28 07:35 NW 1 0.50 Fog VV005 51.8 51.8 100% 30.16 0.0
28 07:15 Calm 0.15 Fog VV000 51.8 51.8 100% 30.15 0.0
28 06:55 Calm 0.50 Fog BKN001 51.8 51.8 100% 30.14 0.0
28 06:35 Calm 0.25 Fog VV005 51.8 51.8 100% 30.14 0.0
28 06:15 Calm 0.25 Fog BKN001 51.8 51.8 100% 30.13 0.0
28 05:55 Calm 0.75 Fog/Mist SCT001 53.6 51.8 94% 30.13 0.0
28 05:35 SE 1 0.15 Fog VV000 53.6 53.6 100% 30.12 0.0
28 05:15 Calm 0.25 Fog VV005 53.6 51.8 94% 30.11 0.0
28 04:55 Calm 0.75 Fog/Mist BKN001 53.6 51.8 94% 30.11 0.0
28 04:35 S 1 0.75 Fog/Mist OVC001 53.6 53.6 100% 30.1 0.0
28 04:15 SW 1 0.25 Fog VV002 53.6 53.6 100% 30.1 0.0
28 03:55 Calm 0.25 Fog VV002 53.6 53.6 100% 30.09 0.0
28 03:35 N 1 0.75 Fog/Mist VV005 53.6 53.6 100% 30.09 0.0
28 03:15 N 1 7.00 Fog/Mist CLR 55.4 55.4 100% 30.09 0.0
28 02:55 Calm 0.50 Fog VV005 55.4 55.4 100% 30.09 0.0
28 02:35 SW 1 1.75 Fog/Mist CLR 57.2 57.2 100% 30.08 0.0
28 02:15 Calm 10.00 Fair CLR 57.2 57.2 100% 30.08 0.0
28 01:55 Calm 10.00 Fair CLR 59 59 72.1 58.6 100% 30.08 0.0
28 01:35 Calm 10.00 Fair CLR 59 57.2 94% 30.08 0.0
28 01:15 Vrbl 2 10.00 A Few Clouds FEW065 62.6 59 88% 30.07 0.0
28 00:55 NE 3 10.00 Mostly Cloudy FEW038 BKN065 62.6 60.8 94% 30.07 0.0
28 00:35 Vrbl 2 10.00 Overcast SCT036 OVC065 64.4 60.8 88% 30.07 0.0
Date Time (edt) Wind (mph) Vis. (mi.) Weather Sky Cond. Air Dwpt Max. Min. Relative Humidity Wind Chill (°F) Heat Index (°F) altimeter (in) sea level (mb) 1 hr 3 hr 6 hr
6 hour
Temperature (ºF) Pressure Precipitation (in)